createdAt,value
2019-05-10T00:04:24.694Z,99.90
2019-05-10T00:09:19.226Z,99.90
2019-05-10T00:14:33.758Z,99.90
2019-05-10T00:19:29.454Z,99.90
2019-05-10T00:24:25.012Z,99.90
2019-05-10T00:29:20.673Z,99.90
2019-05-10T00:34:16.322Z,99.90
2019-05-10T00:39:11.885Z,99.90
2019-05-10T00:44:08.821Z,99.90
2019-05-10T00:49:04.489Z,99.90
2019-05-10T00:54:01.247Z,99.90
2019-05-10T00:58:56.921Z,99.90
2019-05-10T01:03:52.596Z,99.90
2019-05-10T01:08:48.313Z,99.90
2019-05-10T01:13:43.952Z,99.90
2019-05-10T01:18:39.585Z,99.90
2019-05-10T01:23:35.264Z,99.90
2019-05-10T01:28:31.247Z,99.90
2019-05-10T01:33:26.908Z,99.90
2019-05-10T01:38:22.630Z,99.90
2019-05-10T01:43:18.306Z,99.90
2019-05-10T01:48:13.983Z,99.90
2019-05-10T01:53:09.690Z,99.90
2019-05-10T01:58:05.413Z,99.90
2019-05-10T02:03:06.128Z,99.90
2019-05-10T02:08:06.874Z,99.90
2019-05-10T02:13:08.393Z,99.90
2019-05-10T02:18:10.688Z,99.90
2019-05-10T02:23:06.392Z,99.90
2019-05-10T02:28:05.992Z,99.90
2019-05-10T02:33:06.937Z,99.90
2019-05-10T02:38:07.484Z,99.90
2019-05-10T02:43:03.688Z,99.90
2019-05-10T02:47:59.318Z,99.90
2019-05-10T02:52:55.072Z,99.90
2019-05-10T02:57:51.303Z,99.90
2019-05-10T03:02:46.979Z,99.90
2019-05-10T03:07:42.893Z,99.90
2019-05-10T03:12:41.341Z,99.90
2019-05-10T03:17:38.687Z,99.90
2019-05-10T03:22:38.906Z,99.90
2019-05-10T03:27:35.065Z,99.90
2019-05-10T03:32:30.701Z,99.90
2019-05-10T03:37:26.318Z,99.90
2019-05-10T03:42:21.973Z,99.90
2019-05-10T03:47:18.632Z,99.90
2019-05-10T03:52:14.238Z,99.90
2019-05-10T03:57:13.747Z,99.90
2019-05-10T04:02:07.252Z,99.90
2019-05-10T04:07:02.830Z,99.90
2019-05-10T04:11:58.486Z,99.90
2019-05-10T04:16:55.388Z,99.90
2019-05-10T04:21:51.006Z,99.90
2019-05-10T04:26:46.778Z,99.90
2019-05-10T04:31:42.486Z,99.90
2019-05-10T04:36:38.083Z,99.90
2019-05-10T04:41:33.658Z,99.90
2019-05-10T04:46:29.316Z,99.90
2019-05-10T04:51:26.298Z,99.90
2019-05-10T04:56:21.901Z,99.90
2019-05-10T05:01:17.575Z,99.90
2019-05-10T05:06:13.294Z,99.90
2019-05-10T05:11:09.043Z,99.90
2019-05-10T05:16:04.758Z,99.90
2019-05-10T05:21:01.861Z,99.90
2019-05-10T05:25:58.469Z,99.90
2019-05-10T05:30:54.331Z,99.90
2019-05-10T05:35:49.990Z,99.90
2019-05-10T05:40:45.706Z,99.90
2019-05-10T05:45:41.407Z,99.90
2019-05-10T05:50:37.122Z,99.90
2019-05-10T05:55:32.791Z,99.90
2019-05-10T06:00:28.817Z,99.90
2019-05-10T06:05:33.863Z,99.90
2019-05-10T06:10:22.215Z,99.90
2019-05-10T06:15:23.023Z,99.90
2019-05-10T06:20:15.521Z,99.90
2019-05-10T06:25:12.178Z,99.90
2019-05-10T06:30:10.574Z,99.90
2019-05-10T06:35:13.960Z,99.90
2019-05-10T06:40:05.894Z,99.90
2019-05-10T06:45:04.896Z,99.90
2019-05-10T06:49:59.031Z,99.90
2019-05-10T06:54:54.719Z,99.90
2019-05-10T06:59:51.290Z,99.90
2019-05-10T07:04:47.098Z,99.90
2019-05-10T07:10:04.270Z,99.90
2019-05-10T07:14:45.947Z,99.90
2019-05-10T07:19:41.973Z,99.90
2019-05-10T07:24:35.975Z,99.90
2019-05-10T07:29:42.101Z,99.90
2019-05-10T07:34:28.985Z,99.90
2019-05-10T07:39:24.668Z,99.90
2019-05-10T07:44:20.370Z,99.70
2019-05-10T07:49:16.097Z,97.80
2019-05-10T07:54:11.775Z,98.30
2019-05-10T07:59:07.493Z,99.90
2019-05-10T08:04:03.259Z,99.30
2019-05-10T08:09:02.018Z,99.90
2019-05-10T08:14:05.997Z,99.70
2019-05-10T08:19:00.505Z,99.60
2019-05-10T08:23:54.116Z,99.00
2019-05-10T08:28:52.375Z,97.90
2019-05-10T08:33:56.323Z,97.90
2019-05-10T08:38:56.278Z,98.70
2019-05-10T08:43:43.186Z,97.60
2019-05-10T08:48:46.768Z,96.30
2019-05-10T08:53:36.290Z,95.50
2019-05-10T08:58:36.942Z,93.20
2019-05-10T09:03:29.252Z,92.80
2019-05-10T09:08:27.833Z,91.40
2019-05-10T09:13:22.865Z,90.00
2019-05-10T09:18:22.749Z,86.00
2019-05-10T09:23:20.181Z,83.20
2019-05-10T09:28:17.110Z,78.40
2019-05-10T09:33:15.866Z,76.00
2019-05-10T09:38:12.482Z,76.80
2019-05-10T09:43:09.846Z,73.50
2019-05-10T09:48:05.909Z,68.40
2019-05-10T09:53:01.659Z,67.90
2019-05-10T09:57:58.331Z,64.90
2019-05-10T10:02:56.716Z,65.20
2019-05-10T10:07:51.631Z,61.90
2019-05-10T10:12:47.614Z,62.80
2019-05-10T10:17:43.479Z,63.00
2019-05-10T10:22:43.531Z,59.30
2019-05-10T10:27:39.504Z,55.20
2019-05-10T10:32:35.021Z,56.30
2019-05-10T10:37:31.442Z,56.50
2019-05-10T10:42:28.281Z,55.80
2019-05-10T10:47:28.306Z,55.00
2019-05-10T10:52:21.288Z,50.50
2019-05-10T10:57:18.037Z,50.40
2019-05-10T11:02:32.005Z,51.50
2019-05-10T11:07:11.319Z,53.70
2019-05-10T11:12:07.057Z,53.60
2019-05-10T11:17:03.315Z,54.00
2019-05-10T11:22:04.340Z,56.40
2019-05-10T11:26:56.313Z,58.50
2019-05-10T11:32:11.304Z,60.80
2019-05-10T11:36:51.182Z,60.90
2019-05-10T11:41:46.565Z,66.50
2019-05-10T11:46:43.931Z,80.50
2019-05-10T11:51:41.333Z,71.00
2019-05-10T11:56:37.707Z,68.40
2019-05-10T12:01:31.621Z,67.00
2019-05-10T12:06:27.336Z,63.00
2019-05-10T12:11:33.257Z,63.60
2019-05-10T12:16:23.719Z,66.80
2019-05-10T12:21:21.708Z,67.30
2019-05-10T12:27:13.964Z,68.90
2019-05-10T12:31:17.024Z,71.20
2019-05-10T12:36:22.102Z,79.60
2019-05-10T12:41:08.742Z,86.00
2019-05-10T12:46:04.437Z,90.30
2019-05-10T12:51:07.548Z,99.20
2019-05-10T12:56:08.075Z,99.90
2019-05-10T13:01:09.863Z,99.90
2019-05-10T13:06:05.642Z,99.90
2019-05-10T13:11:01.539Z,99.90
2019-05-10T13:15:57.221Z,99.90
2019-05-10T13:20:52.901Z,99.90
2019-05-10T13:25:48.692Z,98.70
2019-05-10T13:30:44.486Z,95.30
2019-05-10T13:35:40.194Z,93.00
2019-05-10T13:40:39.061Z,89.60
2019-05-10T13:45:37.909Z,88.80
2019-05-10T13:50:31.927Z,83.50
2019-05-10T13:55:27.660Z,71.80
2019-05-10T14:00:33.004Z,72.60
2019-05-10T14:05:23.167Z,66.70
2019-05-10T14:10:23.589Z,59.80
2019-05-10T14:15:16.406Z,59.80
2019-05-10T14:20:19.680Z,64.70
2019-05-10T14:25:10.514Z,66.20
2019-05-10T14:30:13.582Z,70.00
2019-05-10T14:35:06.918Z,74.50
2019-05-10T14:40:02.644Z,74.80
2019-05-10T14:44:58.439Z,78.70
2019-05-10T14:49:54.498Z,80.00
2019-05-10T14:54:55.212Z,81.50
2019-05-10T14:59:47.832Z,82.80
2019-05-10T15:04:46.462Z,82.10
2019-05-10T15:09:41.110Z,82.00
2019-05-10T15:14:36.841Z,84.10
2019-05-10T15:19:32.585Z,91.70
2019-05-10T15:24:28.262Z,96.30
2019-05-10T15:29:24.817Z,97.80
2019-05-10T15:34:20.702Z,97.60
2019-05-10T15:39:16.334Z,99.90
2019-05-10T15:44:12.032Z,99.90
2019-05-10T15:49:07.711Z,99.90
2019-05-10T15:54:05.078Z,99.90
2019-05-10T15:59:00.731Z,99.90
2019-05-10T16:03:56.572Z,99.90
2019-05-10T16:08:52.278Z,99.90
2019-05-10T16:13:48.174Z,99.90
2019-05-10T16:18:42.093Z,99.90
2019-05-10T16:23:36.054Z,99.90
2019-05-10T16:28:32.217Z,99.90
2019-05-10T16:33:28.069Z,98.80
2019-05-10T16:38:23.746Z,93.80
2019-05-10T16:43:24.487Z,93.90
2019-05-10T16:48:17.096Z,93.90
2019-05-10T16:53:12.782Z,93.20
2019-05-10T16:58:14.428Z,91.60
2019-05-10T17:03:06.773Z,90.20
2019-05-10T17:08:02.440Z,86.10
2019-05-10T17:12:59.440Z,90.60
2019-05-10T17:17:56.913Z,92.00
2019-05-10T17:22:52.591Z,91.80
2019-05-10T17:27:50.761Z,90.80
2019-05-10T17:32:46.809Z,77.10
2019-05-10T17:37:43.403Z,77.10
2019-05-10T17:42:43.041Z,71.00
2019-05-10T17:47:37.390Z,62.70
2019-05-10T17:52:33.111Z,64.70
2019-05-10T17:57:28.820Z,73.00
2019-05-10T18:02:24.610Z,83.20
2019-05-10T18:07:20.698Z,91.20
2019-05-10T18:12:20.473Z,98.20
2019-05-10T18:17:14.130Z,99.90
2019-05-10T18:22:09.859Z,99.90
2019-05-10T18:27:05.564Z,99.90
2019-05-10T18:32:01.367Z,99.90
2019-05-10T18:36:58.230Z,99.90
2019-05-10T18:41:54.076Z,99.90
2019-05-10T18:46:49.795Z,99.90
2019-05-10T18:51:46.334Z,99.90
2019-05-10T18:56:42.015Z,99.90
2019-05-10T19:01:40.651Z,99.90
2019-05-10T19:06:44.150Z,99.90
2019-05-10T19:11:40.757Z,99.90
2019-05-10T19:16:37.903Z,99.90
2019-05-10T19:21:37.752Z,99.90
2019-05-10T19:26:35.272Z,99.90
2019-05-10T19:31:37.276Z,99.90
2019-05-10T19:36:31.351Z,99.90
2019-05-10T19:41:27.982Z,99.90
2019-05-10T19:46:24.449Z,99.90
2019-05-10T19:51:22.855Z,99.90
2019-05-10T19:56:18.357Z,99.90
2019-05-10T20:01:16.409Z,99.90
2019-05-10T20:06:12.310Z,99.90
2019-05-10T20:11:08.071Z,99.90
2019-05-10T20:16:05.206Z,99.90
2019-05-10T20:21:09.420Z,99.90
2019-05-10T20:26:11.353Z,99.90
2019-05-10T20:31:10.589Z,99.90
2019-05-10T20:36:06.844Z,99.90
2019-05-10T20:41:03.167Z,99.90
2019-05-10T20:46:01.375Z,99.90
2019-05-10T20:50:59.659Z,99.90
2019-05-10T20:55:55.671Z,99.90
2019-05-10T21:00:52.498Z,99.90
2019-05-10T21:05:48.489Z,99.90
2019-05-10T21:10:44.197Z,99.90
2019-05-10T21:15:39.832Z,99.90
2019-05-10T21:20:35.602Z,99.90
2019-05-10T21:25:31.265Z,99.90
2019-05-10T21:30:26.884Z,99.90
2019-05-10T21:35:22.648Z,99.90
2019-05-10T21:40:18.436Z,99.90
2019-05-10T21:45:14.220Z,99.90
2019-05-10T21:50:10.123Z,99.90
2019-05-10T21:55:05.996Z,99.90
2019-05-10T22:00:02.557Z,99.90
2019-05-10T22:04:59.821Z,99.90
2019-05-10T22:09:55.664Z,99.90
2019-05-10T22:14:51.285Z,99.90
2019-05-10T22:19:46.844Z,99.90
2019-05-10T22:24:42.422Z,99.90
2019-05-10T22:29:37.980Z,99.90
2019-05-10T22:34:33.677Z,99.90
2019-05-10T22:39:29.384Z,99.90
2019-05-10T22:44:25.030Z,99.90
2019-05-10T22:49:20.712Z,99.90
2019-05-10T22:54:16.380Z,99.90
2019-05-10T22:59:12.023Z,99.90
2019-05-10T23:04:07.709Z,99.90
2019-05-10T23:09:04.181Z,99.90
2019-05-10T23:13:59.852Z,99.90
2019-05-10T23:18:56.493Z,99.90
2019-05-10T23:23:54.360Z,99.90
2019-05-10T23:28:50.052Z,99.90
2019-05-10T23:33:45.942Z,99.90
2019-05-10T23:38:41.835Z,99.90
2019-05-10T23:43:37.613Z,99.90
2019-05-10T23:48:33.232Z,99.90
2019-05-10T23:53:28.771Z,99.90
2019-05-10T23:58:24.376Z,99.90
